Overview Statistics Trail Chart Weather Telemetry Raw packets
 

This is the latest recevied weather packets stored in our database for station/object EA3CH. If no packets are shown the sender has not sent any weather packets the latest 10 day(s).

<< 44 45 46 47 48 49 50 >>
Time Temp. Humidity Pressure Rain* Wind** Luminosity Snow
1787772603 22.22° C 76% 1014.3 hPa 0 mm - 0 W/m² -
1787771705 23.89° C 62% 1014 hPa 0 mm - 0 W/m² -
1787771704 22.78° C 73% 1014.3 hPa 0 mm - 0 W/m² -
1787770803 23.33° C 73% 1014.1 hPa 0 mm - 0 W/m² -
1787769904 23.89° C 74% 1014.1 hPa 0 mm - 0 W/m² -
1787769004 24.44° C 71% 1014.2 hPa 0 mm - 0 W/m² -
1787768104 25° C 69% 1014.1 hPa 0 mm - 0 W/m² -
1787767207 25.56° C 69% 1014.2 hPa 0 mm - 0 W/m² -
1787766304 25.56° C 69% 1014.2 hPa 0 mm - 0 W/m² -
1787765405 26.67° C 60% 1014.2 hPa 0 mm - 0 W/m² -
1787765403 26.11° C 68% 1014.4 hPa 0 mm - 0 W/m² -
1787764505 26.67° C 58% 1014.3 hPa 0 mm - 0 W/m² -
1787763605 27.22° C 57% 1014.1 hPa 0 mm - 0 W/m² -
1787763604 26.67° C 66% 1014.4 hPa 0 mm - 0 W/m² -
1787762706 27.22° C 58% 1014.3 hPa 0 mm - 0 W/m² -
1787762704 27.22° C 67% 1014.5 hPa 0 mm - 0 W/m² -
1787761804 27.78° C 63% 1014.6 hPa 0 mm - 0 W/m² -
1787760903 28.33° C 58% 1014.4 hPa 0 mm - 0 W/m² -
1787760007 28.33° C 47% 1014.3 hPa 0 mm - 0 W/m² -
1787760004 28.33° C 56% 1014.5 hPa 0 mm - 0 W/m² -
1787759107 28.89° C 42% 1014.4 hPa 0 mm - 0 W/m² -
1787759104 28.33° C 51% 1014.6 hPa 0 mm - 0 W/m² -
1787758207 28.33° C 41% 1014.3 hPa 0 mm - 0 W/m² -
1787758204 28.33° C 49% 1014.5 hPa 0 mm - 0 W/m² -
1787757304 28.89° C 52% 1014.7 hPa 0 mm - 0 W/m² -

* Rain latest hour (hover to see other rain measurements)
** Current wind speed in m/s (hover to see current wind gust speed)